Aviation Digital Data Service (ADDS)

Output produced by METARs form (2222 UTC 23 September 2014)
found at http://aviationweather.gov/adds/metars/
 
KHYA 231731Z 2318/2418 28007KT P6SM FEW250 
     FM232000 24006KT P6SM FEW250 
     FM240500 00000KT P6SM SKC 
     FM241100 05006KT P6SM FEW250 
     FM241500 07010KT P6SM FEW250